Sam, Kazakhstan
Current Conditions -  °F | °C
As of 12:30 PM on Friday 24 Oct 2014 (Local Time) from UATG Reporting Station
Clear Clear  
Wind Chill: 21°   Ceiling: Unl
Heat Index: 32°   Visibility: 6mi
Dew Point: 19°   Wind: 16mph
Humidity: 60%   Direction: 350°N
Pressure: 30.18"   Gusts: NA
Location:  45.4°N, 56.12°E
Report Text: UATG 240830Z 35007MPS CAVOK 00/M07 Q1022 R32/CLRD70 NOSIG RMKQFE769/1025
Loading
Personal Weather Stations






























Interactive Weather Map
Tropical Storm Tracking
New forecast layout! Learn more

10-Day Weather Forecast

Advertisements
Track Severe Weather on mobile